Time;durP1;ratioP1;P1;durP2;ratioP2;P2;SDS_P1;SDS_P2;PMS_P1;PMS_P2;Temp;Humidity;BMP_temperature;BMP_pressure;BME280_temperature;BME280_humidity;BME280_pressure;Samples;Min_cycle;Max_cycle;Signal;HPM_P1;HPM_P2
2022/12/04 00:02:07;;;;;;;84.80;39.22;;;;;;;;;;5072890;28;20385;-68
2022/12/04 00:04:33;;;;;;;86.88;39.67;;;;;;;;;;5072959;28;20023;-67
2022/12/04 00:06:58;;;;;;;79.18;35.95;;;;;;;;;;5055125;28;20371;-67
2022/12/04 00:09:23;;;;;;;99.82;42.03;;;;;;;;;;5054686;28;20505;-67
2022/12/04 00:11:49;;;;;;;127.72;47.33;;;;;;;;;;5073709;28;20025;-67
2022/12/04 00:14:14;;;;;;;92.00;41.58;;;;;;;;;;5071591;28;20020;-67
2022/12/04 00:16:39;;;;;;;86.97;39.53;;;;;;;;;;5072121;28;20020;-67
2022/12/04 00:19:05;;;;;;;86.07;38.40;;;;;;;;;;5053977;28;20025;-67
2022/12/04 00:21:30;;;;;;;85.50;40.92;;;;;;;;;;5072488;28;20032;-67
2022/12/04 00:23:55;;;;;;;103.47;39.72;;;;;;;;;;5072527;28;20024;-67
2022/12/04 00:26:22;;;;;;;109.93;40.38;;;;;;;;;;5072636;28;20040;-67
2022/12/04 00:28:48;;;;;;;83.45;38.13;;;;;;;;;;5072445;28;20031;-67
2022/12/04 00:31:14;;;;;;;97.25;39.38;;;;;;;;;;5072741;28;20020;-67
2022/12/04 00:33:40;;;;;;;108.85;40.60;;;;;;;;;;5054621;28;20054;-67
2022/12/04 00:36:07;;;;;;;90.45;40.72;;;;;;;;;;5072465;28;20063;-67
2022/12/04 00:38:33;;;;;;;106.82;40.58;;;;;;;;;;5072371;28;20017;-68
2022/12/04 00:40:59;;;;;;;119.72;41.85;;;;;;;;;;5072693;28;20478;-67
2022/12/04 00:43:25;;;;;;;124.22;42.13;;;;;;;;;;5072280;28;20024;-68
2022/12/04 00:45:50;;;;;;;116.65;41.30;;;;;;;;;;5054402;28;20024;-67
2022/12/04 00:48:15;;;;;;;89.75;41.22;;;;;;;;;;5071957;28;20049;-67
2022/12/04 00:50:41;;;;;;;81.97;38.70;;;;;;;;;;5071874;28;20031;-67
2022/12/04 00:53:06;;;;;;;81.68;38.70;;;;;;;;;;5071989;28;20359;-67
2022/12/04 00:55:32;;;;;;;97.68;38.90;;;;;;;;;;5072058;28;20115;-67
2022/12/04 00:57:57;;;;;;;81.45;37.67;;;;;;;;;;5072278;28;20484;-67
2022/12/04 01:00:22;;;;;;;84.05;40.58;;;;;;;;;;5072533;28;20024;-67
2022/12/04 01:02:48;;;;;;;88.85;40.83;;;;;;;;;;5062811;28;20024;-67
2022/12/04 01:05:13;;;;;;;84.25;40.20;;;;;;;;;;5070421;28;20111;-68
2022/12/04 01:07:38;;;;;;;81.13;38.92;;;;;;;;;;5071529;28;20078;-67
2022/12/04 01:10:05;;;;;;;89.22;40.33;;;;;;;;;;5070457;28;20074;-67
2022/12/04 01:12:30;;;;;;;91.82;42.00;;;;;;;;;;5071820;28;20027;-67
2022/12/04 01:14:56;;;;;;;88.82;39.85;;;;;;;;;;5071684;28;20334;-67
2022/12/04 01:17:21;;;;;;;84.07;39.40;;;;;;;;;;5071540;28;20036;-67
2022/12/04 01:19:46;;;;;;;91.47;40.10;;;;;;;;;;5071274;28;20055;-67
2022/12/04 01:22:12;;;;;;;83.22;38.25;;;;;;;;;;5071505;28;20069;-67
2022/12/04 01:24:37;;;;;;;83.97;37.30;;;;;;;;;;5071486;28;20420;-67
2022/12/04 01:27:02;;;;;;;113.07;42.78;;;;;;;;;;5070283;28;20197;-67
2022/12/04 01:29:27;;;;;;;84.53;38.50;;;;;;;;;;5071283;28;20025;-67
2022/12/04 01:31:53;;;;;;;82.38;37.08;;;;;;;;;;5071471;28;20020;-67
2022/12/04 01:34:18;;;;;;;77.95;35.35;;;;;;;;;;5071248;28;20103;-66
2022/12/04 01:36:43;;;;;;;80.10;34.35;;;;;;;;;;5070912;28;20035;-67
2022/12/04 01:39:09;;;;;;;86.90;35.65;;;;;;;;;;5071249;28;20063;-66
2022/12/04 01:41:34;;;;;;;81.05;35.20;;;;;;;;;;5071632;28;20098;-67
2022/12/04 01:44:13;;;;;;;81.40;36.42;;;;;;;;;;5071261;28;20027;-66
2022/12/04 01:46:38;;;;;;;79.57;36.53;;;;;;;;;;5071074;28;20067;-67
2022/12/04 01:49:05;;;;;;;79.85;34.92;;;;;;;;;;5082968;28;20168;-67
2022/12/04 01:51:34;;;;;;;75.75;34.42;;;;;;;;;;5090950;28;20099;-67
2022/12/04 01:54:01;;;;;;;79.90;35.03;;;;;;;;;;5073405;28;20024;-67
2022/12/04 01:56:37;;;;;;;70.85;32.20;;;;;;;;;;5091170;28;20032;-67
2022/12/04 01:59:02;;;;;;;66.90;32.72;;;;;;;;;;5091105;28;20031;-66
2022/12/04 02:01:30;;;;;;;67.25;31.95;;;;;;;;;;5072723;28;20428;-67
2022/12/04 02:03:55;;;;;;;67.22;32.45;;;;;;;;;;5091066;28;20435;-66
2022/12/04 02:06:21;;;;;;;66.18;30.38;;;;;;;;;;5091516;28;20194;-67
2022/12/04 02:08:46;;;;;;;65.88;30.00;;;;;;;;;;5090845;28;20034;-66
2022/12/04 02:11:30;;;;;;;61.60;30.85;;;;;;;;;;5091164;28;20024;-67
2022/12/04 02:14:03;;;;;;;93.50;38.95;;;;;;;;;;5090950;28;20031;-66
2022/12/04 02:16:34;;;;;;;92.68;39.05;;;;;;;;;;5072502;28;20051;-67
2022/12/04 02:19:05;;;;;;;95.47;39.35;;;;;;;;;;5091067;28;20104;-67
2022/12/04 02:21:34;;;;;;;70.65;32.25;;;;;;;;;;5090707;28;20031;-67
2022/12/04 02:24:00;;;;;;;58.20;28.17;;;;;;;;;;5090940;28;20051;-67
2022/12/04 02:26:28;;;;;;;59.25;28.05;;;;;;;;;;5090743;28;20477;-67
2022/12/04 02:29:01;;;;;;;52.72;26.35;;;;;;;;;;5090377;28;20065;-67
2022/12/04 02:31:33;;;;;;;51.88;24.23;;;;;;;;;;5072484;28;20024;-66
2022/12/04 02:34:09;;;;;;;50.33;23.48;;;;;;;;;;5072388;28;20077;-67
2022/12/04 02:36:37;;;;;;;48.20;22.35;;;;;;;;;;5072288;28;20515;-66
2022/12/04 02:39:06;;;;;;;48.65;23.83;;;;;;;;;;5072437;28;20535;-67
2022/12/04 02:41:42;;;;;;;49.17;23.40;;;;;;;;;;5071591;28;20035;-66
2022/12/04 02:44:20;;;;;;;52.67;25.65;;;;;;;;;;5090433;28;20028;-67
2022/12/04 02:46:47;;;;;;;63.50;26.65;;;;;;;;;;5090161;28;20386;-67
2022/12/04 02:49:18;;;;;;;57.50;26.58;;;;;;;;;;5090237;28;20044;-66
2022/12/04 02:51:44;;;;;;;55.85;24.23;;;;;;;;;;5090429;28;20053;-66
2022/12/04 02:54:13;;;;;;;49.15;24.95;;;;;;;;;;5090595;28;20152;-66
2022/12/04 02:56:40;;;;;;;55.25;24.55;;;;;;;;;;5090179;28;20028;-66
2022/12/04 02:59:11;;;;;;;51.30;25.65;;;;;;;;;;5090434;28;20024;-66
2022/12/04 03:01:42;;;;;;;60.00;26.45;;;;;;;;;;5072131;28;20028;-66
2022/12/04 03:04:14;;;;;;;54.95;25.42;;;;;;;;;;5072222;28;20027;-66
2022/12/04 03:06:41;;;;;;;59.08;26.25;;;;;;;;;;5090709;28;20066;-66
2022/12/04 03:09:27;;;;;;;53.63;25.40;;;;;;;;;;5090457;28;20031;-65
2022/12/04 03:12:01;;;;;;;55.97;25.95;;;;;;;;;;5089514;28;20036;-66
2022/12/04 03:14:31;;;;;;;60.30;26.42;;;;;;;;;;5071788;28;20043;-66
2022/12/04 03:17:02;;;;;;;63.22;26.98;;;;;;;;;;5071999;28;20020;-67
2022/12/04 03:19:32;;;;;;;57.55;25.77;;;;;;;;;;5090010;28;20107;-66
2022/12/04 03:22:00;;;;;;;51.45;24.02;;;;;;;;;;5072273;28;20019;-66
2022/12/04 03:24:30;;;;;;;54.95;26.02;;;;;;;;;;5071859;28;20550;-66
2022/12/04 03:27:11;;;;;;;50.17;24.85;;;;;;;;;;5089740;28;20020;-66
2022/12/04 03:29:45;;;;;;;58.40;26.52;;;;;;;;;;5071988;28;20024;-66
2022/12/04 03:32:16;;;;;;;51.17;25.35;;;;;;;;;;5090266;28;20077;-66
2022/12/04 03:34:55;;;;;;;48.83;24.65;;;;;;;;;;5089800;28;20032;-66
2022/12/04 03:37:25;;;;;;;49.80;23.40;;;;;;;;;;5089920;28;20466;-66
2022/12/04 03:39:56;;;;;;;45.75;22.95;;;;;;;;;;5089914;28;20032;-66
2022/12/04 03:42:23;;;;;;;45.35;22.13;;;;;;;;;;5090313;28;20020;-65
2022/12/04 03:45:03;;;;;;;48.50;23.30;;;;;;;;;;5089823;28;20055;-65
2022/12/04 03:47:40;;;;;;;42.15;21.05;;;;;;;;;;5071449;28;20462;-66
2022/12/04 03:50:16;;;;;;;44.38;20.80;;;;;;;;;;5049782;28;20049;-65
2022/12/04 03:52:44;;;;;;;46.05;21.17;;;;;;;;;;5048172;28;20033;-66
2022/12/04 03:55:15;;;;;;;45.90;21.70;;;;;;;;;;5052748;28;20029;-66
2022/12/04 03:57:42;;;;;;;40.83;21.13;;;;;;;;;;5053390;28;20032;-66
2022/12/04 04:00:08;;;;;;;44.70;20.88;;;;;;;;;;5063451;28;20027;-66
2022/12/04 04:02:36;;;;;;;42.83;21.05;;;;;;;;;;5051300;28;20053;-66
2022/12/04 04:05:04;;;;;;;52.95;22.85;;;;;;;;;;5051799;28;20021;-66
2022/12/04 04:07:34;;;;;;;46.38;20.98;;;;;;;;;;5052781;28;20052;-66
2022/12/04 04:10:02;;;;;;;43.17;21.95;;;;;;;;;;5053034;28;20135;-65
2022/12/04 04:12:30;;;;;;;44.58;22.15;;;;;;;;;;5051412;28;20020;-66
2022/12/04 04:26:12;;;;;;;42.47;20.25;;;;;;;;;;5052640;28;20035;-65
2022/12/04 04:28:39;;;;;;;47.15;21.50;;;;;;;;;;5051289;28;20065;-66
2022/12/04 04:31:17;;;;;;;42.00;20.88;;;;;;;;;;5051080;28;20021;-66
2022/12/04 04:34:02;;;;;;;42.58;21.98;;;;;;;;;;5050877;28;20183;-65
2022/12/04 04:36:46;;;;;;;60.72;25.73;;;;;;;;;;5051621;28;20076;-66
2022/12/04 04:39:18;;;;;;;61.67;25.83;;;;;;;;;;5052728;28;20356;-65
2022/12/04 04:41:54;;;;;;;52.75;24.33;;;;;;;;;;5042814;28;20024;-66
2022/12/04 04:44:30;;;;;;;46.97;22.88;;;;;;;;;;5052400;28;20032;-66
2022/12/04 04:46:59;;;;;;;45.60;21.48;;;;;;;;;;5052414;28;20056;-66
2022/12/04 04:49:25;;;;;;;29.73;14.30;;;;;;;;;;5067031;28;20162;-66
2022/12/04 04:51:51;;;;;;;41.38;18.90;;;;;;;;;;5072502;28;20028;-66
2022/12/04 04:54:18;;;;;;;52.28;23.10;;;;;;;;;;5070956;28;20025;-66
2022/12/04 04:56:44;;;;;;;49.67;23.40;;;;;;;;;;5070461;28;20021;-66
2022/12/04 04:59:10;;;;;;;48.97;23.15;;;;;;;;;;5071119;28;20032;-66
2022/12/04 05:01:36;;;;;;;53.55;25.42;;;;;;;;;;5071936;28;20016;-66
2022/12/04 05:04:02;;;;;;;52.30;25.13;;;;;;;;;;5072012;28;20414;-65
2022/12/04 05:06:28;;;;;;;50.38;26.55;;;;;;;;;;5070330;28;20518;-66
2022/12/04 05:08:53;;;;;;;58.03;28.20;;;;;;;;;;5070154;28;20020;-65
2022/12/04 05:11:18;;;;;;;52.33;26.23;;;;;;;;;;5071622;28;20039;-65
2022/12/04 05:13:44;;;;;;;58.70;29.10;;;;;;;;;;5072306;28;20025;-65
2022/12/04 05:16:10;;;;;;;54.08;27.80;;;;;;;;;;5071882;28;20032;-65
2022/12/04 05:18:36;;;;;;;53.45;27.98;;;;;;;;;;5071634;28;20056;-65
2022/12/04 05:21:08;;;;;;;53.00;27.95;;;;;;;;;;5070481;28;20079;-65
2022/12/04 05:23:34;;;;;;;55.60;28.13;;;;;;;;;;5070169;28;20024;-66
2022/12/04 05:26:00;;;;;;;58.38;28.00;;;;;;;;;;5071514;28;20119;-65
2022/12/04 05:28:26;;;;;;;54.05;27.38;;;;;;;;;;5070280;28;20426;-65
2022/12/04 05:30:55;;;;;;;56.45;29.30;;;;;;;;;;5071470;28;20032;-66
2022/12/04 05:33:20;;;;;;;55.78;28.98;;;;;;;;;;5071454;28;20120;-64
2022/12/04 05:35:54;;;;;;;64.38;27.70;;;;;;;;;;5069820;28;20123;-65
2022/12/04 05:38:19;;;;;;;53.30;27.85;;;;;;;;;;5070033;28;20059;-64
2022/12/04 05:40:45;;;;;;;57.28;28.35;;;;;;;;;;5071161;28;20060;-67
2022/12/04 05:43:10;;;;;;;55.65;28.48;;;;;;;;;;5071319;28;20060;-65
2022/12/04 05:45:36;;;;;;;59.28;29.17;;;;;;;;;;5069746;28;20031;-66
2022/12/04 05:48:01;;;;;;;55.95;28.20;;;;;;;;;;5070955;28;20040;-65
2022/12/04 05:50:26;;;;;;;61.00;27.75;;;;;;;;;;5091303;28;20092;-66
2022/12/04 05:52:52;;;;;;;55.10;26.90;;;;;;;;;;5072793;28;20023;-66
2022/12/04 05:55:17;;;;;;;56.70;28.60;;;;;;;;;;5090898;28;20110;-65
2022/12/04 05:57:42;;;;;;;59.78;27.13;;;;;;;;;;5073440;28;20357;-64
2022/12/04 06:00:08;;;;;;;59.35;28.90;;;;;;;;;;5072947;28;20059;-65
2022/12/04 06:02:33;;;;;;;63.67;29.77;;;;;;;;;;5090693;28;20047;-67
2022/12/04 06:04:58;;;;;;;59.75;29.55;;;;;;;;;;5073600;28;20470;-65
2022/12/04 06:07:24;;;;;;;56.72;27.85;;;;;;;;;;5090891;28;20543;-66
2022/12/04 06:09:49;;;;;;;59.17;27.63;;;;;;;;;;5091144;28;20016;-66
2022/12/04 06:12:14;;;;;;;59.92;30.30;;;;;;;;;;5091122;28;20034;-66
2022/12/04 06:14:40;;;;;;;63.42;28.75;;;;;;;;;;5072520;28;20040;-64
2022/12/04 06:17:05;;;;;;;68.07;31.35;;;;;;;;;;5072467;28;20161;-67
2022/12/04 06:19:30;;;;;;;65.95;31.20;;;;;;;;;;5090647;28;20020;-66
2022/12/04 06:21:56;;;;;;;68.57;31.58;;;;;;;;;;5072579;28;20020;-66
2022/12/04 06:24:23;;;;;;;66.82;31.40;;;;;;;;;;5091048;28;20023;-66
2022/12/04 06:26:49;;;;;;;62.85;29.55;;;;;;;;;;5072211;28;20028;-65
2022/12/04 06:29:15;;;;;;;64.18;30.75;;;;;;;;;;5091253;28;20103;-65
2022/12/04 06:31:40;;;;;;;63.53;32.95;;;;;;;;;;5072563;28;20016;-65
2022/12/04 06:34:07;;;;;;;68.60;31.90;;;;;;;;;;5072408;28;20019;-65
2022/12/04 06:36:34;;;;;;;68.38;32.05;;;;;;;;;;5090322;28;20116;-65
2022/12/04 06:38:59;;;;;;;69.60;31.58;;;;;;;;;;5090680;28;20032;-64
2022/12/04 06:41:25;;;;;;;68.25;31.35;;;;;;;;;;5090149;28;20123;-65
2022/12/04 06:43:51;;;;;;;73.75;33.33;;;;;;;;;;5090644;28;20620;-65
2022/12/04 06:46:18;;;;;;;74.47;34.28;;;;;;;;;;5072511;28;20447;-64
2022/12/04 06:48:43;;;;;;;71.10;33.45;;;;;;;;;;5071724;28;20162;-65
2022/12/04 06:51:22;;;;;;;71.47;32.83;;;;;;;;;;5072197;28;20115;-65
2022/12/04 06:53:48;;;;;;;70.55;32.97;;;;;;;;;;5072260;28;20035;-65
2022/12/04 06:56:16;;;;;;;77.35;31.63;;;;;;;;;;5072354;28;20036;-65
2022/12/04 06:58:43;;;;;;;59.40;30.48;;;;;;;;;;5090275;28;20094;-65
2022/12/04 07:01:09;;;;;;;60.28;30.70;;;;;;;;;;5090580;28;20031;-65
2022/12/04 07:03:35;;;;;;;65.30;31.60;;;;;;;;;;5072143;28;20047;-65
2022/12/04 07:06:21;;;;;;;66.47;32.22;;;;;;;;;;5072185;28;20044;-65
2022/12/04 07:08:47;;;;;;;64.50;31.30;;;;;;;;;;5071869;28;20486;-65
2022/12/04 07:11:12;;;;;;;64.90;31.35;;;;;;;;;;5072152;28;20020;-65
2022/12/04 07:13:38;;;;;;;72.80;32.50;;;;;;;;;;5090174;28;20035;-65
2022/12/04 07:16:05;;;;;;;59.17;28.95;;;;;;;;;;5071894;28;20038;-65
2022/12/04 07:18:31;;;;;;;59.90;31.75;;;;;;;;;;5090024;28;20028;-65
2022/12/04 07:20:56;;;;;;;68.28;32.00;;;;;;;;;;5090418;28;20024;-65
2022/12/04 07:23:22;;;;;;;60.92;29.10;;;;;;;;;;5071951;28;20024;-64
2022/12/04 07:25:47;;;;;;;69.50;31.95;;;;;;;;;;5089991;28;20432;-65
2022/12/04 07:28:13;;;;;;;67.68;30.90;;;;;;;;;;5091665;28;20431;-65
2022/12/04 07:30:38;;;;;;;62.55;30.67;;;;;;;;;;5075646;28;20546;-65
2022/12/04 07:33:04;;;;;;;61.33;30.65;;;;;;;;;;5093938;28;20020;-66
2022/12/04 07:35:29;;;;;;;65.63;31.77;;;;;;;;;;5093801;28;20032;-65
2022/12/04 07:37:54;;;;;;;71.97;31.33;;;;;;;;;;5075763;28;20020;-66
2022/12/04 07:40:20;;;;;;;63.40;29.48;;;;;;;;;;5094011;28;20024;-65
2022/12/04 07:42:45;;;;;;;70.65;31.20;;;;;;;;;;5093773;28;20028;-66
2022/12/04 07:45:10;;;;;;;70.05;31.75;;;;;;;;;;5094002;28;20028;-66
2022/12/04 07:47:36;;;;;;;68.10;31.45;;;;;;;;;;5093396;28;20106;-66
2022/12/04 07:50:01;;;;;;;71.03;32.97;;;;;;;;;;5075581;28;20044;-66
2022/12/04 07:52:26;;;;;;;66.55;31.67;;;;;;;;;;5093474;28;20032;-66
2022/12/04 07:54:52;;;;;;;62.97;29.75;;;;;;;;;;5093811;28;20075;-66
2022/12/04 07:57:17;;;;;;;69.70;31.20;;;;;;;;;;5075269;28;20023;-66
2022/12/04 07:59:42;;;;;;;67.82;31.30;;;;;;;;;;5093540;28;20046;-65
2022/12/04 08:02:08;;;;;;;74.97;32.80;;;;;;;;;;5075016;28;20020;-67
2022/12/04 08:04:33;;;;;;;71.38;31.80;;;;;;;;;;5075056;28;20028;-66
2022/12/04 08:06:58;;;;;;;69.95;31.10;;;;;;;;;;5075502;28;20085;-65
2022/12/04 08:09:23;;;;;;;71.65;31.42;;;;;;;;;;5091761;28;20028;-67
2022/12/04 08:11:49;;;;;;;68.38;31.38;;;;;;;;;;5093222;28;20107;-66
2022/12/04 08:14:14;;;;;;;72.57;32.13;;;;;;;;;;5093378;28;20016;-66
2022/12/04 08:16:39;;;;;;;77.47;33.65;;;;;;;;;;5074520;28;20505;-66
2022/12/04 08:19:05;;;;;;;76.38;33.20;;;;;;;;;;5092933;28;20511;-66
2022/12/04 08:21:31;;;;;;;73.85;32.22;;;;;;;;;;5074903;28;20024;-66
2022/12/04 08:23:57;;;;;;;73.38;33.30;;;;;;;;;;5074981;28;20038;-66
2022/12/04 08:26:23;;;;;;;70.22;32.10;;;;;;;;;;5074950;28;20027;-66
2022/12/04 08:28:51;;;;;;;82.35;33.83;;;;;;;;;;5074399;28;20031;-66
2022/12/04 08:31:18;;;;;;;82.35;37.20;;;;;;;;;;5092618;28;20554;-66
2022/12/04 08:33:43;;;;;;;77.45;36.15;;;;;;;;;;5092924;28;20028;-66
2022/12/04 08:36:10;;;;;;;79.80;36.80;;;;;;;;;;5092968;28;20047;-67
2022/12/04 08:38:36;;;;;;;68.93;33.10;;;;;;;;;;5074414;28;20115;-67
2022/12/04 08:41:02;;;;;;;64.20;31.85;;;;;;;;;;5092231;28;20102;-66
2022/12/04 08:43:28;;;;;;;64.72;30.80;;;;;;;;;;5092360;28;20058;-67
2022/12/04 08:45:55;;;;;;;54.55;27.70;;;;;;;;;;5092544;28;20051;-67
2022/12/04 08:48:20;;;;;;;46.00;25.70;;;;;;;;;;5092268;28;20048;-66
2022/12/04 08:50:45;;;;;;;47.25;24.52;;;;;;;;;;5092750;28;20080;-67
2022/12/04 08:53:11;;;;;;;47.67;25.23;;;;;;;;;;5074563;28;20113;-67
2022/12/04 08:55:36;;;;;;;43.88;23.88;;;;;;;;;;5092223;28;20028;-66
2022/12/04 08:58:03;;;;;;;50.25;24.48;;;;;;;;;;5092402;28;20028;-69
2022/12/04 09:00:30;;;;;;;41.33;23.17;;;;;;;;;;5073939;28;20428;-67
2022/12/04 09:02:55;;;;;;;47.08;25.00;;;;;;;;;;5092966;28;20020;-67
2022/12/04 09:05:21;;;;;;;42.78;23.10;;;;;;;;;;5074221;28;20023;-67
2022/12/04 09:07:46;;;;;;;44.28;24.85;;;;;;;;;;5092201;28;20096;-67
2022/12/04 09:10:11;;;;;;;41.70;24.35;;;;;;;;;;5073877;28;20032;-67
2022/12/04 09:12:36;;;;;;;39.78;23.75;;;;;;;;;;5073671;28;20024;-67
2022/12/04 09:15:02;;;;;;;47.30;24.38;;;;;;;;;;5073667;28;20032;-67
2022/12/04 09:17:27;;;;;;;39.20;22.65;;;;;;;;;;5091910;28;20020;-68
2022/12/04 09:19:52;;;;;;;46.20;23.98;;;;;;;;;;5092308;28;20454;-67
2022/12/04 09:22:18;;;;;;;41.08;24.92;;;;;;;;;;5073830;28;20061;-67
2022/12/04 09:24:43;;;;;;;39.70;23.40;;;;;;;;;;5091882;28;20024;-67
2022/12/04 09:27:08;;;;;;;46.03;25.30;;;;;;;;;;5091951;28;20027;-66
2022/12/04 09:29:34;;;;;;;42.10;23.83;;;;;;;;;;5073185;28;20652;-66
2022/12/04 09:31:59;;;;;;;42.80;24.48;;;;;;;;;;5092246;28;20110;-66
2022/12/04 09:34:24;;;;;;;42.15;25.15;;;;;;;;;;5091820;28;20027;-67
2022/12/04 09:36:50;;;;;;;41.33;23.25;;;;;;;;;;5073385;28;20515;-67
2022/12/04 09:39:15;;;;;;;42.75;23.98;;;;;;;;;;5091349;28;20488;-67
2022/12/04 09:41:43;;;;;;;39.55;23.10;;;;;;;;;;5073231;28;20433;-66
2022/12/04 09:44:14;;;;;;;43.50;24.83;;;;;;;;;;5091366;28;20115;-67
2022/12/04 09:46:49;;;;;;;42.05;25.00;;;;;;;;;;5073284;28;20623;-67
2022/12/04 09:49:18;;;;;;;41.53;25.20;;;;;;;;;;5069808;28;20059;-66
2022/12/04 09:51:43;;;;;;;43.78;25.45;;;;;;;;;;5070378;28;20102;-67
2022/12/04 09:54:12;;;;;;;40.03;25.88;;;;;;;;;;5069689;28;20028;-67
2022/12/04 09:56:38;;;;;;;43.58;25.92;;;;;;;;;;5070849;28;20321;-66
2022/12/04 09:59:09;;;;;;;45.35;25.38;;;;;;;;;;5069495;28;20028;-67
2022/12/04 10:01:43;;;;;;;45.42;25.08;;;;;;;;;;5069759;28;20016;-67
2022/12/04 10:04:10;;;;;;;45.90;25.75;;;;;;;;;;5071283;28;20028;-67
2022/12/04 10:06:55;;;;;;;45.90;25.85;;;;;;;;;;5070765;28;20360;-67
2022/12/04 10:09:24;;;;;;;48.88;23.40;;;;;;;;;;5069938;28;20064;-66
2022/12/04 10:11:58;;;;;;;46.63;28.20;;;;;;;;;;5070934;28;20111;-67
2022/12/04 10:14:26;;;;;;;48.70;29.38;;;;;;;;;;5070579;28;20064;-68
2022/12/04 10:17:01;;;;;;;49.38;26.50;;;;;;;;;;5069335;28;20119;-67
2022/12/04 10:19:45;;;;;;;52.50;27.50;;;;;;;;;;5070347;28;20389;-67
2022/12/04 10:22:17;;;;;;;48.20;28.42;;;;;;;;;;5069439;28;20155;-68
2022/12/04 10:24:50;;;;;;;51.95;27.98;;;;;;;;;;5070325;28;20046;-67
2022/12/04 10:27:18;;;;;;;53.78;28.15;;;;;;;;;;5070851;28;20188;-68
2022/12/04 10:29:48;;;;;;;53.88;30.02;;;;;;;;;;5069247;28;20032;-67
2022/12/04 10:32:19;;;;;;;58.17;30.65;;;;;;;;;;5069098;28;20585;-67
2022/12/04 10:34:45;;;;;;;54.72;28.05;;;;;;;;;;5070301;28;20063;-67
2022/12/04 10:37:12;;;;;;;56.38;30.55;;;;;;;;;;5070694;28;20474;-67
2022/12/04 10:39:43;;;;;;;56.22;28.67;;;;;;;;;;5070455;28;20452;-67
2022/12/04 10:42:20;;;;;;;50.13;27.40;;;;;;;;;;5069147;28;20536;-68
2022/12/04 10:44:45;;;;;;;50.63;27.08;;;;;;;;;;5068400;28;20035;-66
2022/12/04 10:47:12;;;;;;;51.17;27.02;;;;;;;;;;5070352;28;20016;-66
2022/12/04 10:49:37;;;;;;;49.83;26.85;;;;;;;;;;5084968;28;20048;-67
2022/12/04 10:52:03;;;;;;;56.22;27.55;;;;;;;;;;5072501;28;20028;-67
2022/12/04 10:54:39;;;;;;;51.70;26.33;;;;;;;;;;5090725;28;20031;-67
2022/12/04 10:57:11;;;;;;;45.65;25.58;;;;;;;;;;5090570;28;20106;-66
2022/12/04 10:59:48;;;;;;;47.97;26.15;;;;;;;;;;5090225;28;20048;-67
2022/12/04 11:02:27;;;;;;;52.28;25.02;;;;;;;;;;5090527;28;20063;-66
2022/12/04 11:04:57;;;;;;;46.58;26.00;;;;;;;;;;5094681;28;20541;-67
2022/12/04 11:07:26;;;;;;;47.30;23.98;;;;;;;;;;5094701;28;20047;-66
2022/12/04 11:10:14;;;;;;;51.70;27.02;;;;;;;;;;5094863;28;20048;-67
2022/12/04 11:12:40;;;;;;;51.38;26.02;;;;;;;;;;5084601;28;20115;-67
2022/12/04 11:15:05;;;;;;;49.72;26.80;;;;;;;;;;5076045;28;20843;-67
2022/12/04 11:17:30;;;;;;;48.88;26.52;;;;;;;;;;5075930;28;20024;-67
2022/12/04 11:20:00;;;;;;;48.75;25.48;;;;;;;;;;5094731;28;20020;-67
2022/12/04 11:22:26;;;;;;;47.22;25.67;;;;;;;;;;5094384;28;20024;-67
2022/12/04 11:24:55;;;;;;;46.72;25.80;;;;;;;;;;5076195;28;20115;-66
2022/12/04 11:27:24;;;;;;;52.17;27.30;;;;;;;;;;5075915;28;20378;-67
2022/12/04 11:29:49;;;;;;;53.50;27.83;;;;;;;;;;5076036;28;20198;-68
2022/12/04 11:32:18;;;;;;;50.53;27.15;;;;;;;;;;5075933;28;20111;-68
2022/12/04 11:34:44;;;;;;;51.30;26.23;;;;;;;;;;5093667;28;20567;-68
2022/12/04 11:37:20;;;;;;;58.30;30.63;;;;;;;;;;5094359;28;20331;-67
2022/12/04 11:39:45;;;;;;;50.33;26.45;;;;;;;;;;5094082;28;20157;-67
2022/12/04 11:42:21;;;;;;;50.30;27.88;;;;;;;;;;5075783;28;20511;-67
2022/12/04 11:44:54;;;;;;;55.10;27.48;;;;;;;;;;5075451;28;20123;-66
2022/12/04 11:47:21;;;;;;;43.42;24.70;;;;;;;;;;5093563;28;20078;-67
2022/12/04 11:50:02;;;;;;;47.83;25.15;;;;;;;;;;5072257;28;20110;-67
2022/12/04 11:52:46;;;;;;;46.78;25.05;;;;;;;;;;5073563;28;20025;-67
2022/12/04 11:55:17;;;;;;;46.75;24.23;;;;;;;;;;5073593;28;20068;-67
2022/12/04 11:57:56;;;;;;;50.20;24.65;;;;;;;;;;5073322;28;20017;-67
2022/12/04 12:00:21;;;;;;;44.30;24.35;;;;;;;;;;5073841;28;20032;-67
2022/12/04 12:03:03;;;;;;;59.35;28.73;;;;;;;;;;5073602;28;20028;-67
2022/12/04 12:05:35;;;;;;;46.63;24.92;;;;;;;;;;5071924;28;20098;-67
2022/12/04 12:08:06;;;;;;;43.10;23.75;;;;;;;;;;5071566;28;20058;-67
2022/12/04 12:10:35;;;;;;;68.22;31.88;;;;;;;;;;5072824;28;20391;-67
2022/12/04 12:13:11;;;;;;;69.00;32.10;;;;;;;;;;5073314;28;20402;-66
2022/12/04 12:15:59;;;;;;;67.97;32.72;;;;;;;;;;5070258;28;20813;-66
2022/12/04 12:18:37;;;;;;;47.30;24.85;;;;;;;;;;5072578;28;20036;-68
2022/12/04 12:21:08;;;;;;;54.00;26.88;;;;;;;;;;5071756;28;20394;-67
2022/12/04 12:23:54;;;;;;;52.42;28.15;;;;;;;;;;5071879;28;20027;-67
2022/12/04 12:26:23;;;;;;;49.75;26.20;;;;;;;;;;5071719;28;20085;-67
2022/12/04 12:29:09;;;;;;;51.47;28.53;;;;;;;;;;5072522;28;20029;-67
2022/12/04 12:31:40;;;;;;;57.13;28.70;;;;;;;;;;5072797;28;20020;-66
2022/12/04 12:34:28;;;;;;;51.83;26.85;;;;;;;;;;5071170;28;20054;-66
2022/12/04 12:36:55;;;;;;;52.13;28.30;;;;;;;;;;5070715;28;20039;-67
2022/12/04 12:39:33;;;;;;;52.28;28.48;;;;;;;;;;5071072;28;20027;-66
2022/12/04 12:41:59;;;;;;;58.40;29.80;;;;;;;;;;5071472;28;20024;-66
2022/12/04 12:44:31;;;;;;;57.30;30.33;;;;;;;;;;5072499;28;20028;-67
2022/12/04 12:47:08;;;;;;;58.90;31.90;;;;;;;;;;5070978;28;20107;-66
2022/12/04 12:49:43;;;;;;;54.28;29.20;;;;;;;;;;5086549;28;20540;-67
2022/12/04 12:52:18;;;;;;;56.72;28.20;;;;;;;;;;5074701;28;20039;-67
2022/12/04 12:55:02;;;;;;;59.10;29.90;;;;;;;;;;5092159;28;20016;-66
2022/12/04 12:57:32;;;;;;;59.05;30.98;;;;;;;;;;5092208;28;20024;-66
2022/12/04 13:00:03;;;;;;;69.93;33.60;;;;;;;;;;5074425;28;20054;-66
2022/12/04 13:02:32;;;;;;;58.20;31.55;;;;;;;;;;5092991;28;20097;-66
2022/12/04 13:05:00;;;;;;;62.38;32.15;;;;;;;;;;5092613;28;20016;-66
2022/12/04 13:07:30;;;;;;;57.60;30.63;;;;;;;;;;5092171;28;20057;-66
2022/12/04 13:09:58;;;;;;;61.15;28.88;;;;;;;;;;5092262;28;20016;-66
2022/12/04 13:12:24;;;;;;;60.55;31.23;;;;;;;;;;5092019;28;20478;-68
2022/12/04 13:14:50;;;;;;;59.58;31.42;;;;;;;;;;5091748;28;20035;-66
2022/12/04 13:17:23;;;;;;;56.72;30.27;;;;;;;;;;5073980;28;20535;-67
2022/12/04 13:19:53;;;;;;;59.28;31.00;;;;;;;;;;5073986;28;20024;-66
2022/12/04 13:22:57;;;;;;;67.82;32.40;;;;;;;;;;5092032;28;20031;-66
2022/12/04 13:25:30;;;;;;;63.40;31.35;;;;;;;;;;5028713;28;20033;-66
2022/12/04 13:28:01;;;;;;;66.28;33.80;;;;;;;;;;5029211;28;20038;-66
2022/12/04 13:30:42;;;;;;;62.60;32.08;;;;;;;;;;5062761;28;20394;-67
2022/12/04 13:33:17;;;;;;;61.65;32.00;;;;;;;;;;5073624;28;20118;-67
2022/12/04 13:35:42;;;;;;;67.20;33.28;;;;;;;;;;5091474;28;20044;-67
2022/12/04 13:38:27;;;;;;;57.75;32.05;;;;;;;;;;5073564;28;20026;-67
2022/12/04 13:41:00;;;;;;;63.30;31.52;;;;;;;;;;5073309;28;20027;-67
2022/12/04 13:43:37;;;;;;;66.30;33.17;;;;;;;;;;5073077;28;20213;-67
2022/12/04 13:46:07;;;;;;;68.88;33.30;;;;;;;;;;5073247;28;20074;-66
2022/12/04 13:48:41;;;;;;;59.47;33.15;;;;;;;;;;5072818;28;20080;-67
2022/12/04 13:51:13;;;;;;;60.45;31.20;;;;;;;;;;5073330;28;20031;-67
2022/12/04 13:53:40;;;;;;;65.75;33.92;;;;;;;;;;5072920;28;20052;-67
2022/12/04 13:56:06;;;;;;;66.25;34.63;;;;;;;;;;5091260;28;20024;-67
2022/12/04 13:58:33;;;;;;;68.30;32.40;;;;;;;;;;5091101;28;20070;-68
2022/12/04 14:01:18;;;;;;;65.10;32.63;;;;;;;;;;5073161;28;20023;-66
2022/12/04 14:03:48;;;;;;;63.55;33.00;;;;;;;;;;5090487;28;20036;-69
2022/12/04 14:06:24;;;;;;;63.58;33.75;;;;;;;;;;5091259;28;20051;-68
2022/12/04 14:08:54;;;;;;;60.30;32.35;;;;;;;;;;5090929;28;20453;-66
2022/12/04 14:11:19;;;;;;;70.18;35.90;;;;;;;;;;5072928;28;20024;-67
2022/12/04 14:13:47;;;;;;;66.60;33.05;;;;;;;;;;5091103;28;20027;-67
2022/12/04 14:16:20;;;;;;;65.72;33.35;;;;;;;;;;5090923;28;20035;-66
2022/12/04 14:19:06;;;;;;;82.68;35.10;;;;;;;;;;5090550;28;20081;-67
2022/12/04 14:21:42;;;;;;;66.95;33.28;;;;;;;;;;5088656;28;20374;-67
2022/12/04 14:24:27;;;;;;;72.35;36.08;;;;;;;;;;5090849;28;20028;-66
2022/12/04 14:26:52;;;;;;;69.10;35.85;;;;;;;;;;5072480;28;20027;-67
2022/12/04 14:29:24;;;;;;;64.85;33.90;;;;;;;;;;5090595;28;20093;-67
2022/12/04 14:31:49;;;;;;;72.72;34.85;;;;;;;;;;5072624;28;20072;-67
2022/12/04 14:34:22;;;;;;;68.68;33.85;;;;;;;;;;5072823;28;20020;-67
2022/12/04 14:36:50;;;;;;;64.05;33.47;;;;;;;;;;5072160;28;20468;-67
2022/12/04 14:39:24;;;;;;;74.22;35.78;;;;;;;;;;5071981;28;20024;-68